sensor_id;sensor_type;location;lat;lon;timestamp;P1;durP1;ratioP1;P2;durP2;ratioP2
41061;SDS011;26812;42.662;23.352;2023-01-01T00:01:34;183.85;;;107.25;;
41061;SDS011;26812;42.662;23.352;2023-01-01T00:04:04;192.57;;;109.15;;
41061;SDS011;26812;42.662;23.352;2023-01-01T00:06:33;180.95;;;105.72;;
41061;SDS011;26812;42.662;23.352;2023-01-01T00:08:58;185.00;;;104.72;;
41061;SDS011;26812;42.662;23.352;2023-01-01T00:11:42;187.05;;;105.95;;
41061;SDS011;26812;42.662;23.352;2023-01-01T00:14:08;185.05;;;107.03;;
41061;SDS011;26812;42.662;23.352;2023-01-01T00:16:33;193.27;;;106.75;;
41061;SDS011;26812;42.662;23.352;2023-01-01T00:18:59;192.25;;;109.50;;
41061;SDS011;26812;42.662;23.352;2023-01-01T00:21:24;198.88;;;116.75;;
41061;SDS011;26812;42.662;23.352;2023-01-01T00:23:49;208.07;;;114.22;;
41061;SDS011;26812;42.662;23.352;2023-01-01T00:26:16;207.85;;;121.25;;
41061;SDS011;26812;42.662;23.352;2023-01-01T00:28:42;216.52;;;118.88;;
41061;SDS011;26812;42.662;23.352;2023-01-01T00:31:09;214.52;;;118.20;;
41061;SDS011;26812;42.662;23.352;2023-01-01T00:33:36;194.90;;;111.30;;
41061;SDS011;26812;42.662;23.352;2023-01-01T00:36:09;196.00;;;110.75;;
41061;SDS011;26812;42.662;23.352;2023-01-01T00:38:36;195.52;;;108.68;;
41061;SDS011;26812;42.662;23.352;2023-01-01T00:41:02;178.93;;;102.53;;
41061;SDS011;26812;42.662;23.352;2023-01-01T00:43:28;161.25;;;91.07;;
41061;SDS011;26812;42.662;23.352;2023-01-01T00:45:54;164.45;;;91.18;;
41061;SDS011;26812;42.662;23.352;2023-01-01T00:48:19;171.10;;;91.68;;
41061;SDS011;26812;42.662;23.352;2023-01-01T00:50:46;170.25;;;91.82;;
41061;SDS011;26812;42.662;23.352;2023-01-01T00:53:12;161.30;;;87.10;;
41061;SDS011;26812;42.662;23.352;2023-01-01T00:55:41;145.63;;;81.07;;
41061;SDS011;26812;42.662;23.352;2023-01-01T00:58:07;157.38;;;83.82;;
41061;SDS011;26812;42.662;23.352;2023-01-01T01:00:33;155.85;;;86.57;;
41061;SDS011;26812;42.662;23.352;2023-01-01T01:02:58;155.32;;;91.55;;
41061;SDS011;26812;42.662;23.352;2023-01-01T01:05:24;150.63;;;86.43;;
41061;SDS011;26812;42.662;23.352;2023-01-01T01:07:49;154.48;;;90.10;;
41061;SDS011;26812;42.662;23.352;2023-01-01T01:10:15;174.18;;;95.65;;
41061;SDS011;26812;42.662;23.352;2023-01-01T01:12:41;173.70;;;95.40;;
41061;SDS011;26812;42.662;23.352;2023-01-01T01:15:06;169.13;;;95.90;;
41061;SDS011;26812;42.662;23.352;2023-01-01T01:17:32;169.45;;;96.15;;
41061;SDS011;26812;42.662;23.352;2023-01-01T01:19:58;170.20;;;97.53;;
41061;SDS011;26812;42.662;23.352;2023-01-01T01:22:24;181.68;;;100.85;;
41061;SDS011;26812;42.662;23.352;2023-01-01T01:24:50;185.15;;;95.28;;
41061;SDS011;26812;42.662;23.352;2023-01-01T01:27:15;160.88;;;94.90;;
41061;SDS011;26812;42.662;23.352;2023-01-01T01:29:41;160.25;;;91.70;;
41061;SDS011;26812;42.662;23.352;2023-01-01T01:32:13;163.30;;;93.57;;
41061;SDS011;26812;42.662;23.352;2023-01-01T01:34:38;161.00;;;92.15;;
41061;SDS011;26812;42.662;23.352;2023-01-01T01:37:04;170.68;;;92.50;;
41061;SDS011;26812;42.662;23.352;2023-01-01T01:39:30;160.13;;;89.75;;
41061;SDS011;26812;42.662;23.352;2023-01-01T01:41:56;157.38;;;94.53;;
41061;SDS011;26812;42.662;23.352;2023-01-01T01:49:41;162.57;;;94.28;;
41061;SDS011;26812;42.662;23.352;2023-01-01T01:52:09;177.63;;;98.10;;
41061;SDS011;26812;42.662;23.352;2023-01-01T01:54:35;177.52;;;99.72;;
41061;SDS011;26812;42.662;23.352;2023-01-01T01:57:01;174.48;;;95.75;;
41061;SDS011;26812;42.662;23.352;2023-01-01T01:59:31;184.07;;;99.78;;
41061;SDS011;26812;42.662;23.352;2023-01-01T02:01:59;177.65;;;98.57;;
41061;SDS011;26812;42.662;23.352;2023-01-01T02:04:26;165.07;;;96.60;;
41061;SDS011;26812;42.662;23.352;2023-01-01T02:06:51;183.70;;;99.28;;
41061;SDS011;26812;42.662;23.352;2023-01-01T02:09:18;184.75;;;101.57;;
41061;SDS011;26812;42.662;23.352;2023-01-01T02:11:44;183.35;;;101.70;;
41061;SDS011;26812;42.662;23.352;2023-01-01T02:14:10;171.52;;;97.30;;
41061;SDS011;26812;42.662;23.352;2023-01-01T02:16:42;186.35;;;102.45;;
41061;SDS011;26812;42.662;23.352;2023-01-01T02:30:15;176.07;;;95.55;;
41061;SDS011;26812;42.662;23.352;2023-01-01T02:35:23;166.70;;;94.38;;
41061;SDS011;26812;42.662;23.352;2023-01-01T02:38:04;178.93;;;96.95;;
41061;SDS011;26812;42.662;23.352;2023-01-01T02:40:52;170.02;;;100.32;;
41061;SDS011;26812;42.662;23.352;2023-01-01T02:43:23;169.38;;;97.82;;
41061;SDS011;26812;42.662;23.352;2023-01-01T02:45:48;170.85;;;98.70;;
41061;SDS011;26812;42.662;23.352;2023-01-01T02:51:04;178.45;;;98.95;;
41061;SDS011;26812;42.662;23.352;2023-01-01T02:53:58;182.88;;;100.93;;
41061;SDS011;26812;42.662;23.352;2023-01-01T03:01:48;179.00;;;101.18;;
41061;SDS011;26812;42.662;23.352;2023-01-01T03:04:47;179.77;;;105.65;;
41061;SDS011;26812;42.662;23.352;2023-01-01T03:13:19;186.88;;;99.95;;
41061;SDS011;26812;42.662;23.352;2023-01-01T03:16:27;189.38;;;99.78;;
41061;SDS011;26812;42.662;23.352;2023-01-01T03:19:05;189.07;;;96.68;;
41061;SDS011;26812;42.662;23.352;2023-01-01T03:21:40;179.73;;;98.05;;
41061;SDS011;26812;42.662;23.352;2023-01-01T03:24:28;185.85;;;104.47;;
41061;SDS011;26812;42.662;23.352;2023-01-01T03:26:59;189.65;;;100.10;;
41061;SDS011;26812;42.662;23.352;2023-01-01T03:29:30;176.63;;;98.47;;
41061;SDS011;26812;42.662;23.352;2023-01-01T03:31:58;182.20;;;102.65;;
41061;SDS011;26812;42.662;23.352;2023-01-01T03:34:29;179.65;;;100.60;;
41061;SDS011;26812;42.662;23.352;2023-01-01T03:37:00;173.43;;;98.32;;
41061;SDS011;26812;42.662;23.352;2023-01-01T03:39:33;181.55;;;100.75;;
41061;SDS011;26812;42.662;23.352;2023-01-01T03:42:09;171.63;;;98.50;;
41061;SDS011;26812;42.662;23.352;2023-01-01T03:44:43;173.35;;;93.55;;
41061;SDS011;26812;42.662;23.352;2023-01-01T03:47:11;177.23;;;95.55;;
41061;SDS011;26812;42.662;23.352;2023-01-01T03:49:38;168.30;;;95.18;;
41061;SDS011;26812;42.662;23.352;2023-01-01T03:52:06;172.15;;;94.35;;
41061;SDS011;26812;42.662;23.352;2023-01-01T03:54:52;169.82;;;92.82;;
41061;SDS011;26812;42.662;23.352;2023-01-01T03:57:24;177.90;;;97.00;;
41061;SDS011;26812;42.662;23.352;2023-01-01T03:59:55;168.32;;;93.65;;
41061;SDS011;26812;42.662;23.352;2023-01-01T04:02:24;171.82;;;91.18;;
41061;SDS011;26812;42.662;23.352;2023-01-01T04:04:53;172.63;;;92.75;;
41061;SDS011;26812;42.662;23.352;2023-01-01T04:07:23;157.68;;;91.45;;
41061;SDS011;26812;42.662;23.352;2023-01-01T04:09:49;174.32;;;95.07;;
41061;SDS011;26812;42.662;23.352;2023-01-01T04:12:17;167.00;;;90.57;;
41061;SDS011;26812;42.662;23.352;2023-01-01T04:14:43;173.60;;;89.38;;
41061;SDS011;26812;42.662;23.352;2023-01-01T04:17:10;165.52;;;90.43;;
41061;SDS011;26812;42.662;23.352;2023-01-01T04:19:36;174.55;;;92.18;;
41061;SDS011;26812;42.662;23.352;2023-01-01T04:22:02;169.27;;;93.22;;
41061;SDS011;26812;42.662;23.352;2023-01-01T04:24:28;166.05;;;92.38;;
41061;SDS011;26812;42.662;23.352;2023-01-01T04:26:54;164.20;;;93.18;;
41061;SDS011;26812;42.662;23.352;2023-01-01T04:29:20;172.55;;;92.07;;
41061;SDS011;26812;42.662;23.352;2023-01-01T04:31:46;171.27;;;94.15;;
41061;SDS011;26812;42.662;23.352;2023-01-01T04:34:12;161.27;;;93.00;;
41061;SDS011;26812;42.662;23.352;2023-01-01T04:36:38;175.23;;;93.07;;
41061;SDS011;26812;42.662;23.352;2023-01-01T04:39:03;167.65;;;94.40;;
41061;SDS011;26812;42.662;23.352;2023-01-01T04:41:29;169.75;;;88.55;;
41061;SDS011;26812;42.662;23.352;2023-01-01T04:43:55;166.63;;;90.88;;
41061;SDS011;26812;42.662;23.352;2023-01-01T04:46:22;154.55;;;88.68;;
41061;SDS011;26812;42.662;23.352;2023-01-01T04:48:48;164.80;;;87.13;;
41061;SDS011;26812;42.662;23.352;2023-01-01T04:51:14;158.73;;;89.43;;
41061;SDS011;26812;42.662;23.352;2023-01-01T04:53:41;155.93;;;85.40;;
41061;SDS011;26812;42.662;23.352;2023-01-01T04:56:09;160.82;;;86.45;;
41061;SDS011;26812;42.662;23.352;2023-01-01T04:58:36;152.73;;;85.10;;
41061;SDS011;26812;42.662;23.352;2023-01-01T05:01:03;155.70;;;83.88;;
41061;SDS011;26812;42.662;23.352;2023-01-01T05:03:30;146.23;;;80.60;;
41061;SDS011;26812;42.662;23.352;2023-01-01T05:08:30;150.57;;;82.82;;
41061;SDS011;26812;42.662;23.352;2023-01-01T05:11:00;159.20;;;85.85;;
41061;SDS011;26812;42.662;23.352;2023-01-01T05:13:26;169.40;;;88.60;;
41061;SDS011;26812;42.662;23.352;2023-01-01T05:15:51;156.25;;;86.43;;
41061;SDS011;26812;42.662;23.352;2023-01-01T05:18:17;152.07;;;80.05;;
41061;SDS011;26812;42.662;23.352;2023-01-01T05:20:42;149.13;;;80.03;;
41061;SDS011;26812;42.662;23.352;2023-01-01T05:23:08;153.73;;;80.38;;
41061;SDS011;26812;42.662;23.352;2023-01-01T05:25:33;149.30;;;77.53;;
41061;SDS011;26812;42.662;23.352;2023-01-01T05:27:58;151.57;;;80.45;;
41061;SDS011;26812;42.662;23.352;2023-01-01T05:30:24;144.70;;;80.75;;
41061;SDS011;26812;42.662;23.352;2023-01-01T05:32:49;152.93;;;84.40;;
41061;SDS011;26812;42.662;23.352;2023-01-01T05:35:15;159.63;;;82.50;;
41061;SDS011;26812;42.662;23.352;2023-01-01T05:37:40;154.48;;;84.75;;
41061;SDS011;26812;42.662;23.352;2023-01-01T05:40:06;146.65;;;85.13;;
41061;SDS011;26812;42.662;23.352;2023-01-01T05:42:31;152.98;;;83.22;;
41061;SDS011;26812;42.662;23.352;2023-01-01T05:44:57;148.35;;;83.00;;
41061;SDS011;26812;42.662;23.352;2023-01-01T05:47:23;157.90;;;83.80;;
41061;SDS011;26812;42.662;23.352;2023-01-01T05:49:48;148.27;;;81.68;;
41061;SDS011;26812;42.662;23.352;2023-01-01T05:52:14;146.20;;;80.45;;
41061;SDS011;26812;42.662;23.352;2023-01-01T05:54:39;151.02;;;83.55;;
41061;SDS011;26812;42.662;23.352;2023-01-01T05:57:05;145.52;;;79.47;;
41061;SDS011;26812;42.662;23.352;2023-01-01T05:59:36;143.50;;;80.03;;
41061;SDS011;26812;42.662;23.352;2023-01-01T06:02:02;154.52;;;84.20;;
41061;SDS011;26812;42.662;23.352;2023-01-01T06:04:27;153.52;;;78.70;;
41061;SDS011;26812;42.662;23.352;2023-01-01T06:06:53;145.75;;;78.00;;
41061;SDS011;26812;42.662;23.352;2023-01-01T06:09:18;157.88;;;81.65;;
41061;SDS011;26812;42.662;23.352;2023-01-01T06:11:43;140.45;;;80.30;;
41061;SDS011;26812;42.662;23.352;2023-01-01T06:14:09;140.48;;;74.18;;
41061;SDS011;26812;42.662;23.352;2023-01-01T06:16:34;146.98;;;77.40;;
41061;SDS011;26812;42.662;23.352;2023-01-01T06:19:00;138.77;;;73.88;;
41061;SDS011;26812;42.662;23.352;2023-01-01T06:21:25;147.05;;;76.78;;
41061;SDS011;26812;42.662;23.352;2023-01-01T06:23:53;135.40;;;73.05;;
41061;SDS011;26812;42.662;23.352;2023-01-01T06:26:21;140.63;;;75.70;;
41061;SDS011;26812;42.662;23.352;2023-01-01T06:28:48;139.93;;;73.50;;
41061;SDS011;26812;42.662;23.352;2023-01-01T06:31:15;141.70;;;74.50;;
41061;SDS011;26812;42.662;23.352;2023-01-01T06:33:42;142.00;;;73.95;;
41061;SDS011;26812;42.662;23.352;2023-01-01T06:36:08;140.10;;;75.28;;
41061;SDS011;26812;42.662;23.352;2023-01-01T06:38:36;130.52;;;73.57;;
41061;SDS011;26812;42.662;23.352;2023-01-01T06:41:05;147.27;;;76.18;;
41061;SDS011;26812;42.662;23.352;2023-01-01T06:43:32;133.52;;;74.97;;
41061;SDS011;26812;42.662;23.352;2023-01-01T06:48:26;139.07;;;73.32;;
41061;SDS011;26812;42.662;23.352;2023-01-01T06:50:53;148.57;;;73.55;;
41061;SDS011;26812;42.662;23.352;2023-01-01T06:53:25;138.40;;;71.93;;
41061;SDS011;26812;42.662;23.352;2023-01-01T06:55:50;133.05;;;72.60;;
41061;SDS011;26812;42.662;23.352;2023-01-01T06:58:16;133.70;;;72.05;;
41061;SDS011;26812;42.662;23.352;2023-01-01T07:00:42;131.98;;;72.78;;
41061;SDS011;26812;42.662;23.352;2023-01-01T07:03:10;128.57;;;71.40;;
41061;SDS011;26812;42.662;23.352;2023-01-01T07:05:36;132.23;;;74.10;;
41061;SDS011;26812;42.662;23.352;2023-01-01T07:08:01;140.38;;;74.95;;
41061;SDS011;26812;42.662;23.352;2023-01-01T07:10:27;122.95;;;68.97;;
41061;SDS011;26812;42.662;23.352;2023-01-01T07:12:53;132.95;;;70.38;;
41061;SDS011;26812;42.662;23.352;2023-01-01T07:15:18;134.43;;;72.13;;
41061;SDS011;26812;42.662;23.352;2023-01-01T07:17:43;136.23;;;71.93;;
41061;SDS011;26812;42.662;23.352;2023-01-01T07:20:09;145.65;;;78.10;;
41061;SDS011;26812;42.662;23.352;2023-01-01T07:22:35;136.07;;;72.97;;
41061;SDS011;26812;42.662;23.352;2023-01-01T07:25:02;131.65;;;71.53;;
41061;SDS011;26812;42.662;23.352;2023-01-01T07:27:28;144.10;;;76.07;;
41061;SDS011;26812;42.662;23.352;2023-01-01T07:29:53;138.27;;;75.60;;
41061;SDS011;26812;42.662;23.352;2023-01-01T07:32:18;133.43;;;72.82;;
41061;SDS011;26812;42.662;23.352;2023-01-01T07:34:44;142.43;;;75.50;;
41061;SDS011;26812;42.662;23.352;2023-01-01T07:37:09;150.85;;;81.75;;
41061;SDS011;26812;42.662;23.352;2023-01-01T07:39:34;147.77;;;78.78;;
41061;SDS011;26812;42.662;23.352;2023-01-01T07:42:00;146.02;;;80.43;;
41061;SDS011;26812;42.662;23.352;2023-01-01T07:44:25;129.05;;;68.88;;
41061;SDS011;26812;42.662;23.352;2023-01-01T07:46:59;129.10;;;69.72;;
41061;SDS011;26812;42.662;23.352;2023-01-01T07:49:32;131.82;;;71.88;;
41061;SDS011;26812;42.662;23.352;2023-01-01T07:51:58;123.28;;;71.10;;
41061;SDS011;26812;42.662;23.352;2023-01-01T07:54:23;130.82;;;71.38;;
41061;SDS011;26812;42.662;23.352;2023-01-01T07:56:49;127.75;;;72.38;;
41061;SDS011;26812;42.662;23.352;2023-01-01T07:59:14;132.57;;;73.75;;
41061;SDS011;26812;42.662;23.352;2023-01-01T08:01:39;123.10;;;69.32;;
41061;SDS011;26812;42.662;23.352;2023-01-01T08:04:05;116.10;;;67.18;;
41061;SDS011;26812;42.662;23.352;2023-01-01T08:06:30;113.68;;;66.03;;
41061;SDS011;26812;42.662;23.352;2023-01-01T08:08:55;109.53;;;65.93;;
41061;SDS011;26812;42.662;23.352;2023-01-01T08:11:21;104.82;;;62.67;;
41061;SDS011;26812;42.662;23.352;2023-01-01T08:13:46;106.53;;;62.70;;
41061;SDS011;26812;42.662;23.352;2023-01-01T08:16:12;109.68;;;61.65;;
41061;SDS011;26812;42.662;23.352;2023-01-01T08:18:37;97.60;;;57.58;;
41061;SDS011;26812;42.662;23.352;2023-01-01T08:21:09;101.55;;;58.75;;
41061;SDS011;26812;42.662;23.352;2023-01-01T08:23:34;98.20;;;62.63;;
41061;SDS011;26812;42.662;23.352;2023-01-01T08:26:00;101.18;;;60.67;;
41061;SDS011;26812;42.662;23.352;2023-01-01T08:28:27;105.97;;;61.72;;
41061;SDS011;26812;42.662;23.352;2023-01-01T08:30:53;104.05;;;63.20;;
41061;SDS011;26812;42.662;23.352;2023-01-01T08:33:18;102.88;;;63.05;;
41061;SDS011;26812;42.662;23.352;2023-01-01T08:35:45;97.35;;;59.80;;
41061;SDS011;26812;42.662;23.352;2023-01-01T08:38:10;96.53;;;58.75;;
41061;SDS011;26812;42.662;23.352;2023-01-01T08:40:36;97.85;;;60.50;;
41061;SDS011;26812;42.662;23.352;2023-01-01T08:43:01;98.88;;;58.17;;
41061;SDS011;26812;42.662;23.352;2023-01-01T08:45:27;95.55;;;59.10;;
41061;SDS011;26812;42.662;23.352;2023-01-01T08:47:52;97.60;;;60.00;;
41061;SDS011;26812;42.662;23.352;2023-01-01T08:50:24;95.72;;;58.65;;
41061;SDS011;26812;42.662;23.352;2023-01-01T08:52:50;97.88;;;57.92;;
41061;SDS011;26812;42.662;23.352;2023-01-01T08:55:15;100.60;;;59.05;;
41061;SDS011;26812;42.662;23.352;2023-01-01T08:57:41;94.10;;;59.05;;
41061;SDS011;26812;42.662;23.352;2023-01-01T09:00:06;81.13;;;54.28;;
41061;SDS011;26812;42.662;23.352;2023-01-01T09:02:33;89.22;;;54.72;;
41061;SDS011;26812;42.662;23.352;2023-01-01T09:04:59;87.55;;;52.42;;
41061;SDS011;26812;42.662;23.352;2023-01-01T09:07:24;81.47;;;50.97;;
41061;SDS011;26812;42.662;23.352;2023-01-01T09:09:49;82.72;;;51.78;;
41061;SDS011;26812;42.662;23.352;2023-01-01T09:12:15;81.03;;;50.40;;
41061;SDS011;26812;42.662;23.352;2023-01-01T09:14:41;79.60;;;49.90;;
41061;SDS011;26812;42.662;23.352;2023-01-01T09:17:10;77.95;;;49.35;;
41061;SDS011;26812;42.662;23.352;2023-01-01T09:19:36;79.88;;;49.95;;
41061;SDS011;26812;42.662;23.352;2023-01-01T09:22:01;75.88;;;47.78;;
41061;SDS011;26812;42.662;23.352;2023-01-01T09:24:26;74.97;;;48.65;;
41061;SDS011;26812;42.662;23.352;2023-01-01T09:26:52;74.20;;;46.72;;
41061;SDS011;26812;42.662;23.352;2023-01-01T09:29:17;71.10;;;46.58;;
41061;SDS011;26812;42.662;23.352;2023-01-01T09:31:44;72.85;;;46.83;;
41061;SDS011;26812;42.662;23.352;2023-01-01T09:34:10;73.60;;;46.30;;
41061;SDS011;26812;42.662;23.352;2023-01-01T09:36:36;71.93;;;46.03;;
41061;SDS011;26812;42.662;23.352;2023-01-01T09:39:01;82.93;;;50.25;;
41061;SDS011;26812;42.662;23.352;2023-01-01T09:46:51;72.60;;;46.78;;
41061;SDS011;26812;42.662;23.352;2023-01-01T09:49:28;75.53;;;46.85;;
41061;SDS011;26812;42.662;23.352;2023-01-01T09:51:59;69.18;;;44.28;;
41061;SDS011;26812;42.662;23.352;2023-01-01T09:54:33;70.55;;;45.13;;
41061;SDS011;26812;42.662;23.352;2023-01-01T09:57:04;70.15;;;47.25;;
41061;SDS011;26812;42.662;23.352;2023-01-01T09:59:34;70.53;;;46.00;;
41061;SDS011;26812;42.662;23.352;2023-01-01T10:02:12;69.50;;;46.10;;
41061;SDS011;26812;42.662;23.352;2023-01-01T10:12:35;71.75;;;43.58;;
41061;SDS011;26812;42.662;23.352;2023-01-01T10:17:44;66.45;;;41.70;;
41061;SDS011;26812;42.662;23.352;2023-01-01T10:20:45;63.78;;;40.08;;
41061;SDS011;26812;42.662;23.352;2023-01-01T10:23:10;65.60;;;41.25;;
41061;SDS011;26812;42.662;23.352;2023-01-01T10:25:43;62.75;;;41.85;;
41061;SDS011;26812;42.662;23.352;2023-01-01T10:28:13;63.50;;;40.38;;
41061;SDS011;26812;42.662;23.352;2023-01-01T10:30:43;61.28;;;40.85;;
41061;SDS011;26812;42.662;23.352;2023-01-01T10:33:12;64.07;;;40.60;;
41061;SDS011;26812;42.662;23.352;2023-01-01T10:35:39;61.25;;;40.67;;
41061;SDS011;26812;42.662;23.352;2023-01-01T10:38:19;58.00;;;38.33;;
41061;SDS011;26812;42.662;23.352;2023-01-01T10:40:50;60.50;;;39.22;;
41061;SDS011;26812;42.662;23.352;2023-01-01T10:43:17;54.22;;;38.35;;
41061;SDS011;26812;42.662;23.352;2023-01-01T10:45:47;57.30;;;36.33;;
41061;SDS011;26812;42.662;23.352;2023-01-01T10:48:17;53.22;;;34.42;;
41061;SDS011;26812;42.662;23.352;2023-01-01T10:53:49;51.72;;;34.42;;
41061;SDS011;26812;42.662;23.352;2023-01-01T10:56:19;54.75;;;35.65;;
41061;SDS011;26812;42.662;23.352;2023-01-01T10:58:48;47.33;;;34.97;;
41061;SDS011;26812;42.662;23.352;2023-01-01T11:06:40;47.60;;;32.83;;
41061;SDS011;26812;42.662;23.352;2023-01-01T11:09:26;47.78;;;31.95;;
41061;SDS011;26812;42.662;23.352;2023-01-01T11:16:51;45.63;;;31.42;;
41061;SDS011;26812;42.662;23.352;2023-01-01T11:19:23;42.60;;;30.45;;
41061;SDS011;26812;42.662;23.352;2023-01-01T11:21:49;42.47;;;31.08;;
41061;SDS011;26812;42.662;23.352;2023-01-01T11:24:22;41.35;;;30.85;;
41061;SDS011;26812;42.662;23.352;2023-01-01T11:31:53;45.10;;;30.00;;
41061;SDS011;26812;42.662;23.352;2023-01-01T11:34:27;50.60;;;31.67;;
41061;SDS011;26812;42.662;23.352;2023-01-01T11:39:50;45.40;;;30.27;;
41061;SDS011;26812;42.662;23.352;2023-01-01T11:42:22;42.35;;;28.27;;
41061;SDS011;26812;42.662;23.352;2023-01-01T11:44:59;40.63;;;28.33;;
41061;SDS011;26812;42.662;23.352;2023-01-01T11:47:29;38.80;;;28.63;;
41061;SDS011;26812;42.662;23.352;2023-01-01T11:49:58;41.35;;;29.33;;
41061;SDS011;26812;42.662;23.352;2023-01-01T11:52:46;39.10;;;26.92;;
41061;SDS011;26812;42.662;23.352;2023-01-01T11:55:26;38.95;;;27.88;;
41061;SDS011;26812;42.662;23.352;2023-01-01T11:58:16;42.67;;;28.52;;
41061;SDS011;26812;42.662;23.352;2023-01-01T12:00:53;35.90;;;27.52;;
41061;SDS011;26812;42.662;23.352;2023-01-01T12:03:32;43.38;;;27.70;;
41061;SDS011;26812;42.662;23.352;2023-01-01T12:11:25;36.33;;;26.20;;
41061;SDS011;26812;42.662;23.352;2023-01-01T12:19:40;39.30;;;24.70;;
41061;SDS011;26812;42.662;23.352;2023-01-01T12:22:16;37.20;;;26.10;;
41061;SDS011;26812;42.662;23.352;2023-01-01T12:24:42;34.78;;;25.83;;
41061;SDS011;26812;42.662;23.352;2023-01-01T12:35:08;33.00;;;22.73;;
41061;SDS011;26812;42.662;23.352;2023-01-01T12:37:50;38.80;;;25.83;;
41061;SDS011;26812;42.662;23.352;2023-01-01T12:43:03;36.95;;;24.50;;
41061;SDS011;26812;42.662;23.352;2023-01-01T12:45:45;32.80;;;22.98;;
41061;SDS011;26812;42.662;23.352;2023-01-01T12:48:39;30.35;;;21.70;;
41061;SDS011;26812;42.662;23.352;2023-01-01T13:01:43;35.00;;;24.25;;
41061;SDS011;26812;42.662;23.352;2023-01-01T13:04:11;36.47;;;24.27;;
41061;SDS011;26812;42.662;23.352;2023-01-01T13:06:42;37.00;;;24.38;;
41061;SDS011;26812;42.662;23.352;2023-01-01T13:09:14;36.35;;;25.77;;
41061;SDS011;26812;42.662;23.352;2023-01-01T13:11:42;37.10;;;25.25;;
41061;SDS011;26812;42.662;23.352;2023-01-01T13:14:12;36.75;;;24.67;;
41061;SDS011;26812;42.662;23.352;2023-01-01T13:16:38;36.25;;;25.02;;
41061;SDS011;26812;42.662;23.352;2023-01-01T13:19:06;40.33;;;26.02;;
41061;SDS011;26812;42.662;23.352;2023-01-01T13:21:57;36.67;;;25.48;;
41061;SDS011;26812;42.662;23.352;2023-01-01T13:24:25;35.22;;;25.35;;
41061;SDS011;26812;42.662;23.352;2023-01-01T13:26:52;39.17;;;24.33;;
41061;SDS011;26812;42.662;23.352;2023-01-01T13:37:27;35.45;;;24.52;;
41061;SDS011;26812;42.662;23.352;2023-01-01T13:40:23;34.45;;;23.25;;
41061;SDS011;26812;42.662;23.352;2023-01-01T13:45:26;34.33;;;22.65;;
41061;SDS011;26812;42.662;23.352;2023-01-01T13:53:16;39.55;;;23.90;;
41061;SDS011;26812;42.662;23.352;2023-01-01T14:03:42;31.05;;;20.90;;
41061;SDS011;26812;42.662;23.352;2023-01-01T14:06:15;38.75;;;22.20;;
41061;SDS011;26812;42.662;23.352;2023-01-01T14:09:08;35.22;;;23.25;;
41061;SDS011;26812;42.662;23.352;2023-01-01T14:11:37;38.13;;;23.08;;
41061;SDS011;26812;42.662;23.352;2023-01-01T14:14:02;32.50;;;20.00;;
41061;SDS011;26812;42.662;23.352;2023-01-01T14:16:28;33.92;;;21.63;;
41061;SDS011;26812;42.662;23.352;2023-01-01T14:18:55;33.88;;;20.25;;
41061;SDS011;26812;42.662;23.352;2023-01-01T14:21:28;33.72;;;20.80;;
41061;SDS011;26812;42.662;23.352;2023-01-01T14:23:56;31.90;;;20.95;;
41061;SDS011;26812;42.662;23.352;2023-01-01T14:26:25;29.50;;;20.42;;
41061;SDS011;26812;42.662;23.352;2023-01-01T14:28:53;34.38;;;19.80;;
41061;SDS011;26812;42.662;23.352;2023-01-01T14:31:20;35.67;;;21.13;;
41061;SDS011;26812;42.662;23.352;2023-01-01T14:33:49;34.80;;;20.48;;
41061;SDS011;26812;42.662;23.352;2023-01-01T14:36:16;36.58;;;21.73;;
41061;SDS011;26812;42.662;23.352;2023-01-01T14:38:45;35.17;;;20.15;;
41061;SDS011;26812;42.662;23.352;2023-01-01T14:43:40;34.42;;;21.33;;
41061;SDS011;26812;42.662;23.352;2023-01-01T14:46:15;35.17;;;21.08;;
41061;SDS011;26812;42.662;23.352;2023-01-01T14:48:46;38.25;;;21.15;;
41061;SDS011;26812;42.662;23.352;2023-01-01T14:51:14;38.53;;;22.33;;
41061;SDS011;26812;42.662;23.352;2023-01-01T14:53:44;35.97;;;20.30;;
41061;SDS011;26812;42.662;23.352;2023-01-01T14:56:22;35.78;;;20.50;;
41061;SDS011;26812;42.662;23.352;2023-01-01T15:01:30;38.78;;;22.17;;
41061;SDS011;26812;42.662;23.352;2023-01-01T15:04:02;35.17;;;20.40;;
41061;SDS011;26812;42.662;23.352;2023-01-01T15:06:29;34.20;;;20.65;;
41061;SDS011;26812;42.662;23.352;2023-01-01T15:08:56;32.80;;;20.95;;
41061;SDS011;26812;42.662;23.352;2023-01-01T15:11:22;33.75;;;19.70;;
41061;SDS011;26812;42.662;23.352;2023-01-01T15:13:55;30.38;;;20.88;;
41061;SDS011;26812;42.662;23.352;2023-01-01T15:16:22;34.70;;;22.35;;
41061;SDS011;26812;42.662;23.352;2023-01-01T15:18:49;36.17;;;22.58;;
41061;SDS011;26812;42.662;23.352;2023-01-01T15:23:55;33.28;;;20.17;;
41061;SDS011;26812;42.662;23.352;2023-01-01T15:26:25;38.83;;;20.93;;
41061;SDS011;26812;42.662;23.352;2023-01-01T15:28:51;35.00;;;19.70;;
41061;SDS011;26812;42.662;23.352;2023-01-01T15:31:16;34.33;;;21.88;;
41061;SDS011;26812;42.662;23.352;2023-01-01T15:33:48;30.05;;;19.92;;
41061;SDS011;26812;42.662;23.352;2023-01-01T15:36:13;34.28;;;21.27;;
41061;SDS011;26812;42.662;23.352;2023-01-01T15:38:40;35.00;;;20.88;;
41061;SDS011;26812;42.662;23.352;2023-01-01T15:46:52;38.58;;;22.48;;
41061;SDS011;26812;42.662;23.352;2023-01-01T15:49:25;36.28;;;22.65;;
41061;SDS011;26812;42.662;23.352;2023-01-01T15:51:55;34.85;;;21.00;;
41061;SDS011;26812;42.662;23.352;2023-01-01T15:54:31;32.60;;;20.90;;
41061;SDS011;26812;42.662;23.352;2023-01-01T15:57:00;42.53;;;22.65;;
41061;SDS011;26812;42.662;23.352;2023-01-01T15:59:30;38.97;;;22.73;;
41061;SDS011;26812;42.662;23.352;2023-01-01T16:04:44;44.50;;;25.27;;
41061;SDS011;26812;42.662;23.352;2023-01-01T16:07:18;38.45;;;23.98;;
41061;SDS011;26812;42.662;23.352;2023-01-01T16:09:47;40.03;;;24.27;;
41061;SDS011;26812;42.662;23.352;2023-01-01T16:12:13;44.53;;;23.75;;
41061;SDS011;26812;42.662;23.352;2023-01-01T16:14:38;37.83;;;24.65;;
41061;SDS011;26812;42.662;23.352;2023-01-01T16:17:04;41.88;;;24.05;;
41061;SDS011;26812;42.662;23.352;2023-01-01T16:19:30;40.40;;;23.42;;
41061;SDS011;26812;42.662;23.352;2023-01-01T16:21:57;41.10;;;25.88;;
41061;SDS011;26812;42.662;23.352;2023-01-01T16:24:22;43.22;;;27.92;;
41061;SDS011;26812;42.662;23.352;2023-01-01T16:26:48;44.17;;;25.60;;
41061;SDS011;26812;42.662;23.352;2023-01-01T16:29:14;46.55;;;27.95;;
41061;SDS011;26812;42.662;23.352;2023-01-01T16:31:40;47.45;;;25.05;;
41061;SDS011;26812;42.662;23.352;2023-01-01T16:34:09;45.83;;;27.33;;
41061;SDS011;26812;42.662;23.352;2023-01-01T16:36:43;46.75;;;27.73;;
41061;SDS011;26812;42.662;23.352;2023-01-01T16:39:09;49.97;;;30.13;;